createdAt,value
2018-11-03T00:03:12.292Z,9.00
2018-11-03T00:08:15.272Z,9.00
2018-11-03T00:13:18.277Z,9.00
2018-11-03T00:18:21.393Z,9.00
2018-11-03T00:23:24.385Z,8.90
2018-11-03T00:28:27.436Z,8.80
2018-11-03T00:33:30.461Z,8.80
2018-11-03T00:38:33.555Z,8.80
2018-11-03T00:43:36.498Z,8.70
2018-11-03T00:48:39.472Z,8.70
2018-11-03T00:53:42.402Z,8.70
2018-11-03T00:58:45.362Z,8.60
2018-11-03T01:03:48.366Z,8.60
2018-11-03T01:08:51.438Z,8.70
2018-11-03T01:13:54.397Z,8.70
2018-11-03T01:18:57.358Z,8.90
2018-11-03T01:24:00.349Z,8.90
2018-11-03T01:29:04.984Z,8.80
2018-11-03T01:34:08.004Z,8.90
2018-11-03T01:39:11.731Z,8.90
2018-11-03T01:44:14.691Z,8.90
2018-11-03T01:49:17.605Z,8.90
2018-11-03T01:54:20.591Z,8.80
2018-11-03T01:59:23.524Z,8.70
2018-11-03T02:04:26.488Z,8.60
2018-11-03T02:09:29.498Z,8.50
2018-11-03T02:14:32.439Z,8.40
2018-11-03T02:19:35.353Z,8.30
2018-11-03T02:24:38.282Z,8.30
2018-11-03T02:29:41.208Z,8.30
2018-11-03T02:34:44.110Z,8.10
2018-11-03T02:39:46.983Z,8.10
2018-11-03T02:44:49.900Z,8.10
2018-11-03T02:49:52.870Z,8.00
2018-11-03T02:54:55.957Z,7.70
2018-11-03T02:59:58.907Z,7.60
2018-11-03T03:05:02.307Z,7.30
2018-11-03T03:10:07.712Z,7.10
2018-11-03T03:15:11.715Z,7.00
2018-11-03T03:20:14.683Z,7.00
2018-11-03T03:25:17.681Z,7.00
2018-11-03T03:30:20.670Z,7.00
2018-11-03T03:35:23.612Z,7.00
2018-11-03T03:40:26.530Z,7.00
2018-11-03T03:45:29.456Z,6.90
2018-11-03T03:50:32.397Z,6.90
2018-11-03T03:55:35.374Z,6.80
2018-11-03T04:00:38.324Z,6.80
2018-11-03T04:05:41.341Z,6.70
2018-11-03T04:10:44.342Z,6.60
2018-11-03T04:15:47.197Z,6.50
2018-11-03T04:20:50.122Z,6.40
2018-11-03T04:25:53.082Z,6.20
2018-11-03T04:30:55.951Z,6.10
2018-11-03T04:35:58.911Z,6.00
2018-11-03T04:41:03.669Z,6.00
2018-11-03T04:46:06.699Z,5.80
2018-11-03T04:51:09.673Z,5.70
2018-11-03T04:56:12.608Z,5.60
2018-11-03T05:01:15.510Z,5.50
2018-11-03T05:06:18.412Z,5.50
2018-11-03T05:11:21.372Z,5.60
2018-11-03T05:16:24.304Z,5.70
2018-11-03T05:21:27.293Z,5.70
2018-11-03T05:26:30.196Z,5.70
2018-11-03T05:31:33.176Z,5.60
2018-11-03T05:36:36.157Z,5.20
2018-11-03T05:41:39.395Z,5.00
2018-11-03T05:46:42.475Z,4.80
2018-11-03T05:51:45.339Z,4.90
2018-11-03T05:56:48.260Z,4.80
2018-11-03T06:01:51.253Z,4.70
2018-11-03T06:06:54.166Z,4.70
2018-11-03T06:11:57.082Z,4.60
2018-11-03T06:16:59.997Z,4.60
2018-11-03T06:22:05.288Z,4.50
2018-11-03T06:27:08.247Z,4.30
2018-11-03T06:32:11.224Z,4.30
2018-11-03T06:37:14.187Z,4.40
2018-11-03T06:42:17.182Z,4.50
2018-11-03T06:47:20.192Z,4.50
2018-11-03T06:52:23.218Z,4.50
2018-11-03T06:57:26.065Z,4.70
2018-11-03T07:02:29.004Z,4.80
2018-11-03T07:07:32.041Z,5.10
2018-11-03T07:12:35.160Z,6.10
2018-11-03T07:17:37.925Z,7.10
2018-11-03T07:22:41.200Z,7.80
2018-11-03T07:27:44.120Z,8.60
2018-11-03T07:32:47.058Z,9.00
2018-11-03T07:37:49.976Z,9.40
2018-11-03T07:42:52.893Z,9.70
2018-11-03T07:47:55.931Z,9.10
2018-11-03T07:52:58.859Z,9.00
2018-11-03T07:58:02.191Z,9.10
2018-11-03T08:03:05.193Z,9.00
2018-11-03T08:08:08.151Z,9.00
2018-11-03T08:13:11.069Z,9.00
2018-11-03T08:18:13.979Z,9.10
2018-11-03T08:23:16.883Z,9.20
2018-11-03T08:28:19.824Z,9.10
2018-11-03T08:33:22.751Z,9.40
2018-11-03T08:38:25.679Z,9.70
2018-11-03T08:43:28.612Z,9.90
2018-11-03T08:48:31.615Z,9.90
2018-11-03T08:53:34.602Z,9.70
2018-11-03T08:58:37.605Z,9.80
2018-11-03T09:03:40.551Z,9.90
2018-11-03T09:08:43.431Z,9.70
2018-11-03T09:13:46.372Z,9.60
2018-11-03T09:18:49.298Z,9.60
2018-11-03T09:23:52.152Z,9.60
2018-11-03T09:28:55.082Z,9.70
2018-11-03T09:33:58.025Z,9.60
2018-11-03T09:39:03.665Z,9.70
2018-11-03T09:44:06.728Z,9.80
2018-11-03T09:49:09.674Z,9.90
2018-11-03T09:54:12.636Z,10.00
2018-11-03T09:59:15.613Z,10.30
2018-11-03T10:04:18.657Z,10.40
2018-11-03T10:09:21.536Z,10.40
2018-11-03T10:14:24.474Z,10.50
2018-11-03T10:19:27.410Z,10.60
2018-11-03T10:24:30.324Z,10.60
2018-11-03T10:29:33.291Z,10.70
2018-11-03T10:34:36.224Z,10.70
2018-11-03T10:39:39.105Z,10.90
2018-11-03T10:44:42.089Z,10.90
2018-11-03T10:49:45.009Z,11.00
2018-11-03T10:54:48.102Z,11.10
2018-11-03T10:59:51.866Z,11.20
2018-11-03T11:05:01.674Z,11.30
2018-11-03T11:10:10.776Z,11.40
2018-11-03T11:15:13.700Z,11.40
2018-11-03T11:20:16.693Z,11.40
2018-11-03T11:25:19.650Z,11.40
2018-11-03T11:30:22.560Z,11.50
2018-11-03T11:35:25.530Z,11.60
2018-11-03T11:40:28.639Z,11.60
2018-11-03T11:45:31.622Z,11.70
2018-11-03T11:50:34.825Z,11.80
2018-11-03T11:55:37.783Z,11.90
2018-11-03T12:00:40.835Z,12.00
2018-11-03T12:05:43.560Z,12.10
2018-11-03T12:10:46.545Z,12.10
2018-11-03T12:15:49.568Z,12.00
2018-11-03T12:20:52.564Z,12.10
2018-11-03T12:25:55.449Z,12.10
2018-11-03T12:30:58.408Z,12.10
2018-11-03T12:36:03.214Z,12.30
2018-11-03T12:41:06.205Z,12.40
2018-11-03T12:46:09.247Z,12.40
2018-11-03T12:51:12.299Z,12.60
2018-11-03T12:56:15.261Z,12.60
2018-11-03T13:01:18.292Z,12.70
2018-11-03T13:06:21.203Z,12.70
2018-11-03T13:11:24.177Z,12.70
2018-11-03T13:16:27.278Z,12.80
2018-11-03T13:21:30.206Z,12.80
2018-11-03T13:26:33.125Z,12.70
2018-11-03T13:31:36.138Z,12.70
2018-11-03T13:36:39.035Z,12.80
2018-11-03T13:41:41.971Z,12.80
2018-11-03T13:46:44.922Z,12.80
2018-11-03T13:51:47.951Z,12.70
2018-11-03T13:56:50.991Z,12.70
2018-11-03T14:01:54.056Z,12.70
2018-11-03T14:06:57.127Z,12.60
2018-11-03T14:12:00.162Z,12.60
2018-11-03T14:17:03.855Z,12.60
2018-11-03T14:22:06.814Z,12.50
2018-11-03T14:27:09.823Z,12.50
2018-11-03T14:32:12.753Z,12.40
2018-11-03T14:37:15.691Z,12.30
2018-11-03T14:42:18.774Z,12.40
2018-11-03T14:47:21.864Z,12.30
2018-11-03T14:52:24.843Z,12.30
2018-11-03T14:57:27.936Z,12.20
2018-11-03T15:02:31.043Z,12.10
2018-11-03T15:07:34.345Z,12.00
2018-11-03T15:12:37.329Z,12.00
2018-11-03T15:17:40.332Z,11.90
2018-11-03T15:22:44.037Z,11.70
2018-11-03T15:27:47.140Z,11.60
2018-11-03T15:32:50.153Z,11.60
2018-11-03T15:37:53.202Z,11.40
2018-11-03T15:42:56.203Z,11.20
2018-11-03T15:47:59.257Z,11.00
2018-11-03T15:53:04.863Z,10.80
2018-11-03T15:58:08.032Z,10.60
2018-11-03T16:03:11.014Z,10.30
2018-11-03T16:08:14.048Z,10.20
2018-11-03T16:13:17.056Z,10.00
2018-11-03T16:18:20.167Z,9.70
2018-11-03T16:23:23.144Z,9.50
2018-11-03T16:28:26.212Z,9.40
2018-11-03T16:33:29.204Z,9.00
2018-11-03T16:38:32.206Z,8.70
2018-11-03T16:43:35.053Z,8.50
2018-11-03T16:48:38.169Z,8.30
2018-11-03T16:53:41.103Z,8.20
2018-11-03T16:58:44.093Z,8.00
2018-11-03T17:03:47.082Z,7.70
2018-11-03T17:08:50.088Z,7.60
2018-11-03T17:13:52.978Z,7.60
2018-11-03T17:18:56.069Z,7.50
2018-11-03T17:23:58.909Z,7.40
2018-11-03T17:29:03.028Z,7.30
2018-11-03T17:34:06.075Z,7.30
2018-11-03T17:39:10.372Z,7.40
2018-11-03T17:44:13.365Z,7.50
2018-11-03T17:49:17.297Z,7.30
2018-11-03T17:54:20.245Z,7.10
2018-11-03T17:59:23.356Z,7.10
2018-11-03T18:04:26.768Z,7.30
2018-11-03T18:09:29.800Z,7.50
2018-11-03T18:14:32.859Z,7.50
2018-11-03T18:19:35.887Z,7.30
2018-11-03T18:24:38.901Z,7.20
2018-11-03T18:29:41.852Z,7.20
2018-11-03T18:34:45.209Z,7.10
2018-11-03T18:39:48.218Z,7.10
2018-11-03T18:44:51.094Z,7.00
2018-11-03T18:49:54.295Z,7.20
2018-11-03T18:54:57.377Z,7.50
2018-11-03T19:00:00.404Z,7.60
2018-11-03T19:05:04.757Z,7.70
2018-11-03T19:10:09.268Z,7.70
2018-11-03T19:15:12.187Z,7.60
2018-11-03T19:20:15.949Z,7.70
2018-11-03T19:25:18.870Z,7.80
2018-11-03T19:30:21.914Z,7.80
2018-11-03T19:35:24.856Z,7.90
2018-11-03T19:40:27.865Z,8.00
2018-11-03T19:45:31.300Z,8.10
2018-11-03T19:50:34.463Z,8.10
2018-11-03T19:55:37.892Z,8.20
2018-11-03T20:00:40.989Z,8.40
2018-11-03T20:05:43.888Z,8.60
2018-11-03T20:10:47.192Z,8.70
2018-11-03T20:15:50.563Z,8.80
2018-11-03T20:20:53.513Z,8.90
2018-11-03T20:25:56.657Z,9.00
2018-11-03T20:30:59.827Z,8.90
2018-11-03T20:36:04.453Z,9.00
2018-11-03T20:41:07.714Z,9.00
2018-11-03T20:46:10.615Z,8.90
2018-11-03T20:51:13.565Z,9.00
2018-11-03T20:56:16.615Z,9.00
2018-11-03T21:01:19.641Z,9.10
2018-11-03T21:06:22.658Z,9.10
2018-11-03T21:11:25.570Z,9.20
2018-11-03T21:16:28.785Z,9.30
2018-11-03T21:21:32.868Z,9.40
2018-11-03T21:26:36.130Z,9.40
2018-11-03T21:31:39.150Z,9.40
2018-11-03T21:36:42.019Z,9.50
2018-11-03T21:41:44.900Z,9.50
2018-11-03T21:46:47.962Z,9.50
2018-11-03T21:51:51.185Z,9.50
2018-11-03T21:56:54.068Z,9.40
2018-11-03T22:01:57.002Z,9.40
2018-11-03T22:06:59.977Z,9.40
2018-11-03T22:12:04.790Z,9.40
2018-11-03T22:17:07.668Z,9.40
2018-11-03T22:22:10.879Z,9.50
2018-11-03T22:27:13.941Z,9.50
2018-11-03T22:32:16.892Z,9.50
2018-11-03T22:37:19.837Z,9.50
2018-11-03T22:42:22.789Z,9.50
2018-11-03T22:47:26.436Z,9.50
2018-11-03T22:52:29.384Z,9.50
2018-11-03T22:57:32.324Z,9.60
2018-11-03T23:02:35.258Z,9.50
2018-11-03T23:07:38.383Z,9.60
2018-11-03T23:12:41.356Z,9.50
2018-11-03T23:17:44.260Z,9.50
2018-11-03T23:22:47.178Z,9.50
2018-11-03T23:27:50.104Z,9.50
2018-11-03T23:32:53.051Z,9.40
2018-11-03T23:37:56.130Z,9.40
2018-11-03T23:42:59.064Z,9.40
2018-11-03T23:48:04.679Z,9.40
2018-11-03T23:53:07.901Z,9.40
2018-11-03T23:58:11.057Z,9.40
